Ellard, Mississippi
Current Conditions -  °F | °C
As of 4:35 PM on Friday 28 Nov 2014 (Local Time) from KUOX Reporting Station
Clear Clear  
Wind Chill: 50°   Ceiling: Unl
Heat Index: 50°   Visibility: 10mi
Dew Point: 27°   Wind: 7mph
Humidity: 40%   Direction: 160°SSE
Pressure: 30.22"   Gusts: NA
Location:  34.0213°N, 89.3777°W
Report Text: KUOX 282235Z AUTO 16006KT 10SM CLR 10/M03 A3022 RMK AO2 PWINO PNO
Loading
Personal Weather Stations






























Interactive Weather Map New forecast layout! Learn more

10-Day Weather Forecast

Advertisements
Track Severe Weather on mobile